Wenatchee, WA

11:10 AM PDT on September 18, 2014 (GMT -0700)
3rd and Elliott | Change Station
CLOSE
Current Station
Personal Weather Station
Location: Wenatchee, WA
Elevation: 787 ft
Nearby Weather Stations

Elev 787 ft 47.43 °N, 120.34 °W | Updated 2 seconds ago

Mostly Cloudy
Mostly Cloudy
83.1 °F
Feels Like 80 °F
N
3.8
Wind Variable Wind from West
Gusts 3.8 mph

Today
High -- | Low -- °F
--% Chance of Precip.
Yesterday
High -- | Low -- °F
Precip. -- in
6:42 AM 7:07 PM
Waning Crescent, 25% visible
Pressure 29.68 in
Visibility 10.0 miles
Clouds Clear
Heat Index 80 °F
Dew Point 21 °F
Humidity 10%
Rainfall 0.00 in
Snow Depth 0 in , 0 in , 0 in
UV 5 out of 12
Pollen 2.50 out of 12
Air Quality Not available.
Flu Activity Not available.
METAR KEAT 181755Z AUTO 31010KT 10SM CLR 26/08 A2970 RMK AO2 SLP048 T02560083 10256 20206 51013

More Conditions Fewer Conditions

Pressure 29.68 in
Visibility 10.0 miles
Clouds Clear
Heat Index 80 °F
Dew Point 21 °F
Humidity 10%
Rainfall 0.00 in
Snow Depth 0 in , 0 in , 0 in
UV 5 out of 12
Pollen 2.50 out of 12
Air Quality Not available.
Flu Activity Not available.
METAR KEAT 181755Z AUTO 31010KT 10SM CLR 26/08 A2970 RMK AO2 SLP048 T02560083 10256 20206 51013

More Conditions Fewer Conditions

10-Day Weather Forecast

Almanac

Astronomy

Sep. 18, 2014 Rise Set
Actual Time 6:42 AM PDT 7:07 PM PDT
Civil Twilight 6:12 AM PDT 7:37 PM PDT
Nautical Twilight 5:35 AM PDT 8:13 PM PDT
Astronomical Twilight 4:57 AM PDT 8:51 PM PDT
Moon 1:23 AM PDT 4:16 PM PDT
Length of Visible Light 13h 25m
Length of Day
12h 24m
Tomorrow will be 3m 23s shorter.
Waning Crescent, 25% of the Moon is Illuminated
Today
Waning Crescent
Sep 24
New
Oct 1
First Quarter
Oct 8
Full
Oct 15
Last Quarter

Today's Extremes

State Highs State Lows

Community

WunderPhotos

Upload Photos

1,754,410 photos uploaded!

Nearby

Snow Depth

Station Depth Elevation
Alpine Meadows 0 in 3500 ft
Stevens Pass 0 in 4070 ft
Spencer Meadow 0 in 3400 ft
Lost Horse 0 in 5000 ft
Park Creek Ridge 0 in 4600 ft

Earthquake Activity

City Distance Mag. Time & Date
No recent earthquake activity has been reported nearby.
Minimum magnitude displayed is 2.5.

Coastal Water Temperatures

Place Temperature
No Stations Reporting

Nearby Weather Stations